sensor_id;sensor_type;location;lat;lon;timestamp;pressure;altitude;pressure_sealevel;temperature;humidity
56174;BME280;42058;52.308;20.924;2022-10-16T00:01:27;100724.79;;;14.42;100.00
56174;BME280;42058;52.308;20.924;2022-10-16T00:03:56;100721.34;;;14.40;100.00
56174;BME280;42058;52.308;20.924;2022-10-16T00:06:23;100720.41;;;14.41;100.00
56174;BME280;42058;52.308;20.924;2022-10-16T00:08:50;100720.41;;;14.41;100.00
56174;BME280;42058;52.308;20.924;2022-10-16T00:11:23;100721.63;;;14.45;100.00
56174;BME280;42058;52.308;20.924;2022-10-16T00:13:51;100718.56;;;14.43;100.00
56174;BME280;42058;52.308;20.924;2022-10-16T00:16:19;100716.80;;;14.44;100.00
56174;BME280;42058;52.308;20.924;2022-10-16T00:18:46;100714.53;;;14.45;100.00
56174;BME280;42058;52.308;20.924;2022-10-16T00:21:16;100714.53;;;14.45;100.00
56174;BME280;42058;52.308;20.924;2022-10-16T00:23:49;100720.62;;;14.47;100.00
56174;BME280;42058;52.308;20.924;2022-10-16T00:26:19;100720.62;;;14.47;100.00
56174;BME280;42058;52.308;20.924;2022-10-16T00:28:47;100713.57;;;14.48;100.00
56174;BME280;42058;52.308;20.924;2022-10-16T00:31:14;100715.28;;;14.49;100.00
56174;BME280;42058;52.308;20.924;2022-10-16T00:33:41;100715.28;;;14.49;100.00
56174;BME280;42058;52.308;20.924;2022-10-16T00:36:10;100719.14;;;14.52;100.00
56174;BME280;42058;52.308;20.924;2022-10-16T00:38:37;100720.05;;;14.51;100.00
56174;BME280;42058;52.308;20.924;2022-10-16T00:41:05;100729.73;;;14.52;100.00
56174;BME280;42058;52.308;20.924;2022-10-16T00:43:47;100729.73;;;14.52;100.00
56174;BME280;42058;52.308;20.924;2022-10-16T00:46:24;100731.44;;;14.53;100.00
56174;BME280;42058;52.308;20.924;2022-10-16T00:49:07;100727.09;;;14.52;100.00
56174;BME280;42058;52.308;20.924;2022-10-16T00:51:43;100731.44;;;14.53;100.00
56174;BME280;42058;52.308;20.924;2022-10-16T00:54:21;100734.09;;;14.53;100.00
56174;BME280;42058;52.308;20.924;2022-10-16T00:56:49;100729.38;;;14.49;100.00
56174;BME280;42058;52.308;20.924;2022-10-16T00:59:28;100734.51;;;14.54;100.00
56174;BME280;42058;52.308;20.924;2022-10-16T01:01:55;100732.72;;;14.54;100.00
56174;BME280;42058;52.308;20.924;2022-10-16T01:04:23;100734.92;;;14.55;100.00
56174;BME280;42058;52.308;20.924;2022-10-16T01:09:37;100748.16;;;14.55;100.00
56174;BME280;42058;52.308;20.924;2022-10-16T01:12:23;100748.16;;;14.55;100.00
56174;BME280;42058;52.308;20.924;2022-10-16T01:20:36;100755.17;;;14.56;100.00
56174;BME280;42058;52.308;20.924;2022-10-16T01:23:21;100751.20;;;14.56;100.00
56174;BME280;42058;52.308;20.924;2022-10-16T01:28:41;100757.44;;;14.55;100.00
56174;BME280;42058;52.308;20.924;2022-10-16T01:31:05;100759.25;;;14.53;100.00
56174;BME280;42058;52.308;20.924;2022-10-16T01:33:42;100759.25;;;14.53;100.00
56174;BME280;42058;52.308;20.924;2022-10-16T01:36:19;100754.84;;;14.53;100.00
56174;BME280;42058;52.308;20.924;2022-10-16T01:38:49;100756.16;;;14.53;100.00
56174;BME280;42058;52.308;20.924;2022-10-16T01:41:21;100764.55;;;14.53;100.00
56174;BME280;42058;52.308;20.924;2022-10-16T01:43:55;100760.98;;;14.54;100.00
56174;BME280;42058;52.308;20.924;2022-10-16T01:46:23;100757.02;;;14.54;100.00
56174;BME280;42058;52.308;20.924;2022-10-16T01:48:51;100753.67;;;14.49;100.00
56174;BME280;42058;52.308;20.924;2022-10-16T01:51:19;100754.89;;;14.52;100.00
56174;BME280;42058;52.308;20.924;2022-10-16T01:53:49;100755.28;;;14.53;100.00
56174;BME280;42058;52.308;20.924;2022-10-16T01:56:18;100755.28;;;14.53;100.00
56174;BME280;42058;52.308;20.924;2022-10-16T01:58:54;100745.63;;;14.52;100.00
56174;BME280;42058;52.308;20.924;2022-10-16T02:01:26;100754.47;;;14.51;100.00
56174;BME280;42058;52.308;20.924;2022-10-16T02:03:57;100766.39;;;14.51;100.00
56174;BME280;42058;52.308;20.924;2022-10-16T02:06:25;100766.39;;;14.51;100.00
56174;BME280;42058;52.308;20.924;2022-10-16T02:08:53;100762.09;;;14.48;100.00
56174;BME280;42058;52.308;20.924;2022-10-16T02:11:19;100762.09;;;14.48;100.00
56174;BME280;42058;52.308;20.924;2022-10-16T02:13:51;100758.17;;;14.47;100.00
56174;BME280;42058;52.308;20.924;2022-10-16T02:16:40;100755.98;;;14.46;100.00
56174;BME280;42058;52.308;20.924;2022-10-16T02:19:11;100751.16;;;14.46;100.00
56174;BME280;42058;52.308;20.924;2022-10-16T02:21:47;100756.51;;;14.44;100.00
56174;BME280;42058;52.308;20.924;2022-10-16T02:24:20;100751.27;;;14.42;100.00
56174;BME280;42058;52.308;20.924;2022-10-16T02:26:54;100751.27;;;14.42;100.00
56174;BME280;42058;52.308;20.924;2022-10-16T02:29:26;100748.91;;;14.35;100.00
56174;BME280;42058;52.308;20.924;2022-10-16T02:32:00;100748.91;;;14.35;100.00
56174;BME280;42058;52.308;20.924;2022-10-16T02:34:25;100755.06;;;14.35;100.00
56174;BME280;42058;52.308;20.924;2022-10-16T02:36:54;100754.12;;;14.36;100.00
56174;BME280;42058;52.308;20.924;2022-10-16T02:39:21;100762.20;;;14.33;100.00
56174;BME280;42058;52.308;20.924;2022-10-16T02:41:47;100762.20;;;14.33;100.00
56174;BME280;42058;52.308;20.924;2022-10-16T02:44:14;100758.28;;;14.32;100.00
56174;BME280;42058;52.308;20.924;2022-10-16T02:46:40;100759.98;;;14.33;100.00
56174;BME280;42058;52.308;20.924;2022-10-16T02:49:06;100764.05;;;14.31;100.00
56174;BME280;42058;52.308;20.924;2022-10-16T02:51:32;100768.92;;;14.30;100.00
56174;BME280;42058;52.308;20.924;2022-10-16T02:53:58;100768.92;;;14.30;100.00
56174;BME280;42058;52.308;20.924;2022-10-16T02:56:24;100758.05;;;14.26;100.00
56174;BME280;42058;52.308;20.924;2022-10-16T02:58:50;100769.86;;;14.29;100.00
56174;BME280;42058;52.308;20.924;2022-10-16T03:01:16;100774.73;;;14.28;100.00
56174;BME280;42058;52.308;20.924;2022-10-16T03:03:42;100767.65;;;14.29;100.00
56174;BME280;42058;52.308;20.924;2022-10-16T03:06:09;100769.44;;;14.28;100.00
56174;BME280;42058;52.308;20.924;2022-10-16T03:08:35;100776.06;;;14.28;100.00
56174;BME280;42058;52.308;20.924;2022-10-16T03:11:01;100772.09;;;14.28;100.00
56174;BME280;42058;52.308;20.924;2022-10-16T03:13:28;100785.38;;;14.27;100.00
56174;BME280;42058;52.308;20.924;2022-10-16T03:15:54;100785.38;;;14.27;100.00
56174;BME280;42058;52.308;20.924;2022-10-16T03:18:20;100787.97;;;14.28;100.00
56174;BME280;42058;52.308;20.924;2022-10-16T03:20:46;100790.62;;;14.28;100.00
56174;BME280;42058;52.308;20.924;2022-10-16T03:23:12;100786.70;;;14.27;100.00
56174;BME280;42058;52.308;20.924;2022-10-16T03:25:38;100795.96;;;14.27;100.00
56174;BME280;42058;52.308;20.924;2022-10-16T03:28:04;100792.09;;;14.23;100.00
56174;BME280;42058;52.308;20.924;2022-10-16T03:30:31;100792.09;;;14.23;100.00
56174;BME280;42058;52.308;20.924;2022-10-16T03:32:57;100798.14;;;14.27;100.00
56174;BME280;42058;52.308;20.924;2022-10-16T03:35:24;100791.14;;;14.26;100.00
56174;BME280;42058;52.308;20.924;2022-10-16T03:37:50;100781.50;;;14.23;100.00
56174;BME280;42058;52.308;20.924;2022-10-16T03:40:16;100793.78;;;14.26;100.00
56174;BME280;42058;52.308;20.924;2022-10-16T03:42:43;100793.78;;;14.26;100.00
56174;BME280;42058;52.308;20.924;2022-10-16T03:45:11;100801.72;;;14.26;100.00
56174;BME280;42058;52.308;20.924;2022-10-16T03:47:37;100801.72;;;14.26;100.00
56174;BME280;42058;52.308;20.924;2022-10-16T03:50:04;100803.52;;;14.26;100.00
56174;BME280;42058;52.308;20.924;2022-10-16T03:52:31;100800.41;;;14.26;100.00
56174;BME280;42058;52.308;20.924;2022-10-16T03:54:58;100794.73;;;14.23;100.00
56174;BME280;42058;52.308;20.924;2022-10-16T03:57:24;100805.80;;;14.23;100.00
56174;BME280;42058;52.308;20.924;2022-10-16T03:59:50;100797.61;;;14.17;100.00
56174;BME280;42058;52.308;20.924;2022-10-16T04:02:16;100811.55;;;14.22;100.00
56174;BME280;42058;52.308;20.924;2022-10-16T04:04:42;100812.08;;;14.20;100.00
56174;BME280;42058;52.308;20.924;2022-10-16T04:07:08;100807.22;;;14.20;100.00
56174;BME280;42058;52.308;20.924;2022-10-16T04:09:35;100802.91;;;14.17;100.00
56174;BME280;42058;52.308;20.924;2022-10-16T04:12:01;100805.14;;;14.16;100.00
56174;BME280;42058;52.308;20.924;2022-10-16T04:14:27;100807.86;;;14.15;100.00
56174;BME280;42058;52.308;20.924;2022-10-16T04:16:53;100807.97;;;14.12;100.00
56174;BME280;42058;52.308;20.924;2022-10-16T04:19:19;100808.48;;;14.10;100.00
56174;BME280;42058;52.308;20.924;2022-10-16T04:21:45;100813.35;;;14.09;100.00
56174;BME280;42058;52.308;20.924;2022-10-16T04:24:11;100814.34;;;14.06;100.00
56174;BME280;42058;52.308;20.924;2022-10-16T04:26:37;100810.41;;;14.04;100.00
56174;BME280;42058;52.308;20.924;2022-10-16T04:29:04;100814.91;;;14.02;100.00
56174;BME280;42058;52.308;20.924;2022-10-16T04:31:30;100807.48;;;14.00;100.00
56174;BME280;42058;52.308;20.924;2022-10-16T04:33:56;100813.67;;;13.99;100.00
56174;BME280;42058;52.308;20.924;2022-10-16T04:36:22;100821.22;;;13.98;100.00
56174;BME280;42058;52.308;20.924;2022-10-16T04:38:48;100810.31;;;13.94;100.00
56174;BME280;42058;52.308;20.924;2022-10-16T04:41:14;100816.93;;;13.94;100.00
56174;BME280;42058;52.308;20.924;2022-10-16T04:43:40;100817.45;;;13.92;100.00
56174;BME280;42058;52.308;20.924;2022-10-16T04:46:07;100821.98;;;13.89;100.00
56174;BME280;42058;52.308;20.924;2022-10-16T04:48:33;100831.36;;;13.86;100.00
56174;BME280;42058;52.308;20.924;2022-10-16T04:50:59;100829.71;;;13.81;100.00
56174;BME280;42058;52.308;20.924;2022-10-16T04:53:25;100835.47;;;13.81;100.00
56174;BME280;42058;52.308;20.924;2022-10-16T04:55:51;100838.20;;;13.78;100.00
56174;BME280;42058;52.308;20.924;2022-10-16T04:58:17;100835.69;;;13.75;100.00
56174;BME280;42058;52.308;20.924;2022-10-16T05:00:44;100831.81;;;13.72;100.00
56174;BME280;42058;52.308;20.924;2022-10-16T05:03:13;100837.61;;;13.70;100.00
56174;BME280;42058;52.308;20.924;2022-10-16T05:05:44;100835.02;;;13.68;100.00
56174;BME280;42058;52.308;20.924;2022-10-16T05:08:12;100836.42;;;13.65;100.00
56174;BME280;42058;52.308;20.924;2022-10-16T05:10:41;100846.66;;;13.62;100.00
56174;BME280;42058;52.308;20.924;2022-10-16T05:13:08;100855.56;;;13.60;100.00
56174;BME280;42058;52.308;20.924;2022-10-16T05:15:35;100867.52;;;13.58;100.00
56174;BME280;42058;52.308;20.924;2022-10-16T05:18:01;100867.55;;;13.57;100.00
56174;BME280;42058;52.308;20.924;2022-10-16T05:20:27;100869.82;;;13.54;100.00
56174;BME280;42058;52.308;20.924;2022-10-16T05:22:53;100862.82;;;13.53;100.00
56174;BME280;42058;52.308;20.924;2022-10-16T05:25:19;100857.11;;;13.52;100.00
56174;BME280;42058;52.308;20.924;2022-10-16T05:27:48;100856.72;;;13.51;100.00
56174;BME280;42058;52.308;20.924;2022-10-16T05:30:20;100863.33;;;13.51;100.00
56174;BME280;42058;52.308;20.924;2022-10-16T05:32:49;100862.91;;;13.50;100.00
56174;BME280;42058;52.308;20.924;2022-10-16T05:35:17;100860.30;;;13.49;100.00
56174;BME280;42058;52.308;20.924;2022-10-16T05:37:45;100855.48;;;13.48;100.00
56174;BME280;42058;52.308;20.924;2022-10-16T05:40:11;100856.34;;;13.49;100.00
56174;BME280;42058;52.308;20.924;2022-10-16T05:42:39;100854.67;;;13.46;100.00
56174;BME280;42058;52.308;20.924;2022-10-16T05:45:08;100861.28;;;13.46;100.00
56174;BME280;42058;52.308;20.924;2022-10-16T05:47:36;100862.18;;;13.45;100.00
56174;BME280;42058;52.308;20.924;2022-10-16T05:50:03;100860.42;;;13.45;100.00
56174;BME280;42058;52.308;20.924;2022-10-16T05:52:29;100862.18;;;13.45;100.00
56174;BME280;42058;52.308;20.924;2022-10-16T05:54:55;100868.41;;;13.44;100.00
56174;BME280;42058;52.308;20.924;2022-10-16T05:57:22;100876.33;;;13.44;100.00
56174;BME280;42058;52.308;20.924;2022-10-16T05:59:48;100883.41;;;13.43;100.00
56174;BME280;42058;52.308;20.924;2022-10-16T06:02:14;100881.63;;;13.44;100.00
56174;BME280;42058;52.308;20.924;2022-10-16T06:04:40;100877.23;;;13.43;100.00
56174;BME280;42058;52.308;20.924;2022-10-16T06:07:06;100881.63;;;13.44;100.00
56174;BME280;42058;52.308;20.924;2022-10-16T06:09:33;100886.05;;;13.43;100.00
56174;BME280;42058;52.308;20.924;2022-10-16T06:11:59;100882.01;;;13.45;100.00
56174;BME280;42058;52.308;20.924;2022-10-16T06:14:25;100892.20;;;13.44;100.00
56174;BME280;42058;52.308;20.924;2022-10-16T06:16:51;100892.20;;;13.44;100.00
56174;BME280;42058;52.308;20.924;2022-10-16T06:19:17;100896.97;;;13.46;100.00
56174;BME280;42058;52.308;20.924;2022-10-16T06:21:44;100896.55;;;13.45;100.00
56174;BME280;42058;52.308;20.924;2022-10-16T06:24:10;100897.78;;;13.48;100.00
56174;BME280;42058;52.308;20.924;2022-10-16T06:26:37;100892.03;;;13.49;100.00
56174;BME280;42058;52.308;20.924;2022-10-16T06:29:03;100892.45;;;13.50;100.00
56174;BME280;42058;52.308;20.924;2022-10-16T06:31:30;100895.10;;;13.50;100.00
56174;BME280;42058;52.308;20.924;2022-10-16T06:33:59;100897.70;;;13.51;100.00
56174;BME280;42058;52.308;20.924;2022-10-16T06:36:25;100909.09;;;13.53;100.00
56174;BME280;42058;52.308;20.924;2022-10-16T06:38:52;100904.62;;;13.55;100.00
56174;BME280;42058;52.308;20.924;2022-10-16T06:41:21;100907.17;;;13.58;100.00
56174;BME280;42058;52.308;20.924;2022-10-16T06:43:47;100913.67;;;13.61;100.00
56174;BME280;42058;52.308;20.924;2022-10-16T06:46:17;100908.76;;;13.64;100.00
56174;BME280;42058;52.308;20.924;2022-10-16T06:48:45;100914.86;;;13.66;100.00
56174;BME280;42058;52.308;20.924;2022-10-16T06:51:14;100914.77;;;13.69;100.00
56174;BME280;42058;52.308;20.924;2022-10-16T06:53:50;100909.36;;;13.72;100.00
56174;BME280;42058;52.308;20.924;2022-10-16T06:56:21;100911.06;;;13.75;100.00
56174;BME280;42058;52.308;20.924;2022-10-16T06:58:50;100912.22;;;13.79;100.00
56174;BME280;42058;52.308;20.924;2022-10-16T07:01:19;100914.73;;;13.84;100.00
56174;BME280;42058;52.308;20.924;2022-10-16T07:03:46;100915.50;;;13.88;100.00
56174;BME280;42058;52.308;20.924;2022-10-16T07:06:15;100923.18;;;13.95;100.00
56174;BME280;42058;52.308;20.924;2022-10-16T07:08:45;100922.11;;;14.01;100.00
56174;BME280;42058;52.308;20.924;2022-10-16T07:11:14;100922.83;;;14.06;100.00
56174;BME280;42058;52.308;20.924;2022-10-16T07:13:44;100929.28;;;14.11;100.00
56174;BME280;42058;52.308;20.924;2022-10-16T07:16:13;100934.02;;;14.14;100.00
56174;BME280;42058;52.308;20.924;2022-10-16T07:18:42;100945.36;;;14.18;100.00
56174;BME280;42058;52.308;20.924;2022-10-16T07:21:14;100938.66;;;14.21;100.00
56174;BME280;42058;52.308;20.924;2022-10-16T07:23:43;100941.55;;;14.27;100.00
56174;BME280;42058;52.308;20.924;2022-10-16T07:26:10;100938.86;;;14.28;100.00
56174;BME280;42058;52.308;20.924;2022-10-16T07:28:37;100945.77;;;14.32;100.00
56174;BME280;42058;52.308;20.924;2022-10-16T07:31:07;100937.27;;;14.36;100.00
56174;BME280;42058;52.308;20.924;2022-10-16T07:33:37;100931.02;;;14.38;100.00
56174;BME280;42058;52.308;20.924;2022-10-16T07:36:04;100932.54;;;14.46;100.00
56174;BME280;42058;52.308;20.924;2022-10-16T07:38:31;100932.54;;;14.46;100.00
56174;BME280;42058;52.308;20.924;2022-10-16T07:41:03;100932.41;;;14.49;100.00
56174;BME280;42058;52.308;20.924;2022-10-16T07:43:32;100916.89;;;14.51;100.00
56174;BME280;42058;52.308;20.924;2022-10-16T07:45:59;100914.06;;;14.56;100.00
56174;BME280;42058;52.308;20.924;2022-10-16T07:48:31;100920.96;;;14.61;100.00
56174;BME280;42058;52.308;20.924;2022-10-16T07:50:59;100933.02;;;14.70;100.00
56174;BME280;42058;52.308;20.924;2022-10-16T07:53:27;100925.78;;;14.75;100.00
56174;BME280;42058;52.308;20.924;2022-10-16T07:56:01;100925.78;;;14.75;100.00
56174;BME280;42058;52.308;20.924;2022-10-16T07:58:30;100935.10;;;14.86;100.00
56174;BME280;42058;52.308;20.924;2022-10-16T08:00:57;100935.10;;;14.86;100.00
56174;BME280;42058;52.308;20.924;2022-10-16T08:03:24;100931.55;;;14.87;100.00
56174;BME280;42058;52.308;20.924;2022-10-16T08:05:51;100950.56;;;14.98;100.00
56174;BME280;42058;52.308;20.924;2022-10-16T08:08:18;100957.80;;;15.06;100.00
56174;BME280;42058;52.308;20.924;2022-10-16T08:10:45;100957.80;;;15.06;100.00
56174;BME280;42058;52.308;20.924;2022-10-16T08:13:11;100959.63;;;15.16;100.00
56174;BME280;42058;52.308;20.924;2022-10-16T08:15:38;100956.35;;;15.21;100.00
56174;BME280;42058;52.308;20.924;2022-10-16T08:18:05;100955.67;;;15.28;100.00
56174;BME280;42058;52.308;20.924;2022-10-16T08:20:32;100955.67;;;15.28;100.00
56174;BME280;42058;52.308;20.924;2022-10-16T08:23:00;100954.95;;;15.34;100.00
56174;BME280;42058;52.308;20.924;2022-10-16T08:25:27;100958.00;;;15.47;100.00
56174;BME280;42058;52.308;20.924;2022-10-16T08:27:53;100958.00;;;15.47;100.00
56174;BME280;42058;52.308;20.924;2022-10-16T08:30:21;100955.87;;;15.57;100.00
56174;BME280;42058;52.308;20.924;2022-10-16T08:32:48;100955.87;;;15.57;100.00
56174;BME280;42058;52.308;20.924;2022-10-16T08:35:16;100973.56;;;15.68;100.00
56174;BME280;42058;52.308;20.924;2022-10-16T08:37:42;100974.20;;;15.75;100.00
56174;BME280;42058;52.308;20.924;2022-10-16T08:40:27;100974.42;;;15.81;100.00
56174;BME280;42058;52.308;20.924;2022-10-16T08:43:06;100973.72;;;15.87;100.00
56174;BME280;42058;52.308;20.924;2022-10-16T08:46:09;100966.34;;;15.95;100.00
56174;BME280;42058;52.308;20.924;2022-10-16T08:48:43;100969.52;;;16.04;100.00
56174;BME280;42058;52.308;20.924;2022-10-16T08:51:26;100965.70;;;16.11;100.00
56174;BME280;42058;52.308;20.924;2022-10-16T08:54:05;100961.86;;;16.18;100.00
56174;BME280;42058;52.308;20.924;2022-10-16T08:56:34;100963.34;;;16.25;100.00
56174;BME280;42058;52.308;20.924;2022-10-16T08:59:00;100969.65;;;16.33;100.00
56174;BME280;42058;52.308;20.924;2022-10-16T09:01:41;100966.28;;;16.40;100.00
56174;BME280;42058;52.308;20.924;2022-10-16T09:04:29;100977.91;;;16.47;100.00
56174;BME280;42058;52.308;20.924;2022-10-16T09:07:04;100977.57;;;16.55;100.00
56174;BME280;42058;52.308;20.924;2022-10-16T09:09:43;100976.80;;;16.63;100.00
56174;BME280;42058;52.308;20.924;2022-10-16T09:12:24;100968.61;;;16.68;100.00
56174;BME280;42058;52.308;20.924;2022-10-16T09:21:14;100959.00;;;16.96;100.00
56174;BME280;42058;52.308;20.924;2022-10-16T09:23:47;100960.30;;;17.06;100.00
56174;BME280;42058;52.308;20.924;2022-10-16T09:26:14;100965.61;;;17.17;100.00
56174;BME280;42058;52.308;20.924;2022-10-16T09:28:42;100954.00;;;17.28;100.00
56174;BME280;42058;52.308;20.924;2022-10-16T09:31:17;100954.05;;;17.37;100.00
56174;BME280;42058;52.308;20.924;2022-10-16T09:33:51;100958.16;;;17.44;100.00
56174;BME280;42058;52.308;20.924;2022-10-16T09:36:20;100958.27;;;17.51;100.00
56174;BME280;42058;52.308;20.924;2022-10-16T09:38:46;100962.74;;;17.59;100.00
56174;BME280;42058;52.308;20.924;2022-10-16T09:41:21;100960.25;;;17.65;100.00
56174;BME280;42058;52.308;20.924;2022-10-16T09:43:59;100959.20;;;17.69;100.00
56174;BME280;42058;52.308;20.924;2022-10-16T09:46:35;100958.89;;;17.75;100.00
56174;BME280;42058;52.308;20.924;2022-10-16T09:49:02;100954.59;;;17.81;100.00
56174;BME280;42058;52.308;20.924;2022-10-16T09:51:37;100960.59;;;17.86;100.00
56174;BME280;42058;52.308;20.924;2022-10-16T09:54:14;100962.57;;;17.92;100.00
56174;BME280;42058;52.308;20.924;2022-10-16T09:56:42;100966.25;;;17.98;100.00
56174;BME280;42058;52.308;20.924;2022-10-16T09:59:13;100968.23;;;18.03;100.00
56174;BME280;42058;52.308;20.924;2022-10-16T10:01:48;100965.83;;;18.07;100.00
56174;BME280;42058;52.308;20.924;2022-10-16T10:04:13;100969.10;;;18.12;100.00
56174;BME280;42058;52.308;20.924;2022-10-16T10:06:46;100967.08;;;18.17;100.00
56174;BME280;42058;52.308;20.924;2022-10-16T10:09:28;100966.69;;;18.25;100.00
56174;BME280;42058;52.308;20.924;2022-10-16T10:11:57;100960.59;;;18.32;100.00
56174;BME280;42058;52.308;20.924;2022-10-16T10:14:27;100963.75;;;18.40;100.00
56174;BME280;42058;52.308;20.924;2022-10-16T10:19:58;100955.18;;;18.51;100.00
56174;BME280;42058;52.308;20.924;2022-10-16T10:22:40;100953.48;;;18.58;100.00
56174;BME280;42058;52.308;20.924;2022-10-16T10:30:59;100934.00;;;18.74;100.00
56174;BME280;42058;52.308;20.924;2022-10-16T10:36:37;100941.55;;;18.83;100.00
56174;BME280;42058;52.308;20.924;2022-10-16T10:39:14;100944.84;;;18.88;100.00
56174;BME280;42058;52.308;20.924;2022-10-16T10:42:08;100950.95;;;18.90;99.31
56174;BME280;42058;52.308;20.924;2022-10-16T10:44:46;100943.65;;;18.94;99.19
56174;BME280;42058;52.308;20.924;2022-10-16T10:52:58;100934.86;;;19.00;98.46
56174;BME280;42058;52.308;20.924;2022-10-16T10:58:45;100933.19;;;19.07;98.00
56174;BME280;42058;52.308;20.924;2022-10-16T11:01:14;100937.03;;;19.10;97.29
56174;BME280;42058;52.308;20.924;2022-10-16T11:06:30;100949.09;;;19.17;97.06
56174;BME280;42058;52.308;20.924;2022-10-16T11:09:10;100950.64;;;19.21;96.42
56174;BME280;42058;52.308;20.924;2022-10-16T11:11:48;100943.81;;;19.24;96.23
56174;BME280;42058;52.308;20.924;2022-10-16T11:14:25;100941.73;;;19.29;96.29
56174;BME280;42058;52.308;20.924;2022-10-16T11:17:02;100941.57;;;19.32;96.67
56174;BME280;42058;52.308;20.924;2022-10-16T11:22:29;100932.69;;;19.40;95.56
56174;BME280;42058;52.308;20.924;2022-10-16T11:28:01;100926.99;;;19.47;94.81
56174;BME280;42058;52.308;20.924;2022-10-16T11:31:05;100936.73;;;19.48;94.45
56174;BME280;42058;52.308;20.924;2022-10-16T11:33:45;100942.28;;;19.52;94.35
56174;BME280;42058;52.308;20.924;2022-10-16T11:39:26;100943.10;;;19.61;94.27
56174;BME280;42058;52.308;20.924;2022-10-16T11:42:08;100946.94;;;19.64;94.02
56174;BME280;42058;52.308;20.924;2022-10-16T11:47:43;100943.71;;;19.66;93.45
56174;BME280;42058;52.308;20.924;2022-10-16T11:53:33;100935.91;;;19.70;93.30
56174;BME280;42058;52.308;20.924;2022-10-16T11:55:58;100930.80;;;19.74;93.54
56174;BME280;42058;52.308;20.924;2022-10-16T11:58:47;100931.01;;;19.78;92.96
56174;BME280;42058;52.308;20.924;2022-10-16T12:07:15;100940.31;;;19.87;92.35
56174;BME280;42058;52.308;20.924;2022-10-16T12:09:41;100934.88;;;19.89;92.44
56174;BME280;42058;52.308;20.924;2022-10-16T12:12:37;100948.16;;;19.90;91.98
56174;BME280;42058;52.308;20.924;2022-10-16T12:17:54;100953.22;;;19.95;91.90
56174;BME280;42058;52.308;20.924;2022-10-16T12:20:31;100955.80;;;19.96;91.67
56174;BME280;42058;52.308;20.924;2022-10-16T12:23:02;100953.45;;;19.99;91.99
56174;BME280;42058;52.308;20.924;2022-10-16T12:25:33;100957.25;;;20.02;91.85
56174;BME280;42058;52.308;20.924;2022-10-16T12:30:34;100948.91;;;20.08;91.74
56174;BME280;42058;52.308;20.924;2022-10-16T12:33:06;100949.67;;;20.10;92.03
56174;BME280;42058;52.308;20.924;2022-10-16T12:35:53;100951.30;;;20.13;91.93
56174;BME280;42058;52.308;20.924;2022-10-16T12:38:25;100955.62;;;20.15;91.32
56174;BME280;42058;52.308;20.924;2022-10-16T12:40:57;100963.55;;;20.17;91.19
56174;BME280;42058;52.308;20.924;2022-10-16T12:43:35;100958.48;;;20.20;90.86
56174;BME280;42058;52.308;20.924;2022-10-16T12:48:42;100957.84;;;20.23;90.66
56174;BME280;42058;52.308;20.924;2022-10-16T12:51:11;100964.43;;;20.25;90.51
56174;BME280;42058;52.308;20.924;2022-10-16T12:53:38;100963.09;;;20.25;90.18
56174;BME280;42058;52.308;20.924;2022-10-16T12:56:19;100965.77;;;20.25;89.86
56174;BME280;42058;52.308;20.924;2022-10-16T13:01:34;100964.80;;;20.26;89.99
56174;BME280;42058;52.308;20.924;2022-10-16T13:07:28;100964.03;;;20.24;89.04
56174;BME280;42058;52.308;20.924;2022-10-16T13:10:27;100971.20;;;20.23;89.19
56174;BME280;42058;52.308;20.924;2022-10-16T13:13:11;100978.45;;;20.21;89.43
56174;BME280;42058;52.308;20.924;2022-10-16T13:15:58;100981.20;;;20.20;89.45
56174;BME280;42058;52.308;20.924;2022-10-16T13:18:53;100983.11;;;20.18;89.46
56174;BME280;42058;52.308;20.924;2022-10-16T13:21:38;100990.36;;;20.15;89.76
56174;BME280;42058;52.308;20.924;2022-10-16T13:24:31;100988.25;;;20.13;89.86
56174;BME280;42058;52.308;20.924;2022-10-16T13:27:35;100987.56;;;20.10;89.93
56174;BME280;42058;52.308;20.924;2022-10-16T13:30:16;100993.84;;;20.09;90.05
56174;BME280;42058;52.308;20.924;2022-10-16T13:32:50;100991.73;;;20.07;90.33
56174;BME280;42058;52.308;20.924;2022-10-16T13:35:24;100994.49;;;20.05;90.77
56174;BME280;42058;52.308;20.924;2022-10-16T13:38:09;100991.98;;;20.02;90.90
56174;BME280;42058;52.308;20.924;2022-10-16T13:40:33;100995.63;;;20.01;90.59
56174;BME280;42058;52.308;20.924;2022-10-16T13:43:00;100997.97;;;19.98;90.39
56174;BME280;42058;52.308;20.924;2022-10-16T13:45:27;101004.37;;;19.96;90.73
56174;BME280;42058;52.308;20.924;2022-10-16T13:48:09;100999.59;;;19.94;90.93
56174;BME280;42058;52.308;20.924;2022-10-16T13:50:32;101004.08;;;19.93;90.65
56174;BME280;42058;52.308;20.924;2022-10-16T13:53:06;101002.42;;;19.91;90.77
56174;BME280;42058;52.308;20.924;2022-10-16T13:55:34;100998.50;;;19.89;90.78
56174;BME280;42058;52.308;20.924;2022-10-16T13:58:14;100990.12;;;19.88;90.93
56174;BME280;42058;52.308;20.924;2022-10-16T14:00:56;100976.08;;;19.85;90.96
56174;BME280;42058;52.308;20.924;2022-10-16T14:03:24;100979.31;;;19.83;91.05
56174;BME280;42058;52.308;20.924;2022-10-16T14:06:02;100983.40;;;19.81;91.44
56174;BME280;42058;52.308;20.924;2022-10-16T14:08:30;100991.49;;;19.80;91.61